KEAT/EAT METAR and TAF weather

Enter ICAO airport designator
Station Type Date Time Source
KEAT METAR 2018/07/16 23:55 UTC NOAA

KEAT 162355Z AUTO 13010KT 10SM CLR 37/04 A2988 RMK AO2 SLP107 T03670044 10372 20294 58016


Station Type Date Time Source
KEAT Decoded METAR 2018/07/16 23:55 UTC NOAA

WENATCHEE PANGBORN MEMO, WA, United States (KEAT) 47-24N 120-12W 377M
Jul 16, 2018 - 07:55 PM EDT / 2018.07.16 2355 UTC
Wind: from the SE (130 degrees) at 12 MPH (10 KT):0
Visibility: 10 mile(s):0
Sky conditions: clear
Temperature: 98.1 F (36.7 C)
Dew Point: 39.9 F (4.4 C)
Relative Humidity: 13%
Pressure (altimeter): 29.88 in. Hg (1011 hPa)
Pressure tendency: 0.05 inches (1.6 hPa) lower than three hours ago
ob: KEAT 162355Z AUTO 13010KT 10SM CLR 37/04 A2988 RMK AO2 SLP107 T03670044 10372 20294 58016
cycle: 0

Station Type Date Time Source
KEAT TAF 2018/07/16 18:36 UTC NOAA

TAF KEAT 161733Z 1618/1718 23003KT P6SM SKC
FM162000 13006KT P6SM SKC
FM170300 31008KT P6SM SCT250


Example: see airport list